Time;durP1;ratioP1;P1;durP2;ratioP2;P2;SDS_P1;SDS_P2;PMS_P1;PMS_P2;Temp;Humidity;BMP_temperature;BMP_pressure;BME280_temperature;BME280_humidity;BME280_pressure;Samples;Min_cycle;Max_cycle;Signal;HPM_P1;HPM_P2
2021/03/10 00:01:39;;;;;;;34.30;18.77;;;3.40;99.90;;;;;;5092175;28;20474;-73
2021/03/10 00:04:05;;;;;;;35.78;18.70;;;3.50;99.90;;;;;;5092054;28;20058;-73
2021/03/10 00:06:30;;;;;;;34.80;18.95;;;3.50;99.90;;;;;;5092394;28;20016;-73
2021/03/10 00:08:57;;;;;;;36.85;19.55;;;3.50;99.90;;;;;;5092182;28;20098;-74
2021/03/10 00:11:22;;;;;;;37.10;19.13;;;3.50;99.90;;;;;;5074119;28;20027;-73
2021/03/10 00:13:48;;;;;;;37.28;19.70;;;3.40;99.90;;;;;;5073643;28;20389;-73
2021/03/10 00:16:13;;;;;;;34.38;19.38;;;3.40;99.90;;;;;;5091960;28;20016;-73
2021/03/10 00:18:39;;;;;;;38.95;18.48;;;3.40;99.90;;;;;;5092023;28;20385;-73
2021/03/10 00:21:05;;;;;;;34.63;18.45;;;3.30;99.90;;;;;;5091814;28;20496;-73
2021/03/10 00:23:30;;;;;;;37.28;19.08;;;3.40;99.90;;;;;;5073555;28;20028;-73
2021/03/10 00:25:56;;;;;;;35.67;17.55;;;3.40;99.90;;;;;;5091863;28;20428;-73
2021/03/10 00:28:21;;;;;;;35.08;17.30;;;3.40;99.90;;;;;;5091792;28;20070;-73
2021/03/10 00:30:47;;;;;;;37.85;18.35;;;3.40;99.90;;;;;;5091734;28;20020;-73
2021/03/10 00:33:12;;;;;;;36.15;18.85;;;3.30;99.90;;;;;;5091859;28;20028;-74
2021/03/10 00:35:38;;;;;;;38.45;20.00;;;3.30;99.90;;;;;;5073326;28;20032;-73
2021/03/10 00:38:03;;;;;;;41.65;19.85;;;3.20;99.90;;;;;;5073467;28;20058;-73
2021/03/10 00:40:29;;;;;;;36.10;18.95;;;3.20;99.90;;;;;;5091535;28;20024;-73
2021/03/10 00:42:55;;;;;;;37.05;19.95;;;3.10;99.90;;;;;;5091186;28;20056;-73
2021/03/10 00:45:21;;;;;;;40.30;18.95;;;3.20;99.90;;;;;;5073175;28;20312;-73
2021/03/10 00:47:46;;;;;;;43.15;19.58;;;3.20;99.90;;;;;;5091426;28;20492;-73
2021/03/10 00:50:17;;;;;;;37.45;19.13;;;3.30;99.90;;;;;;5091245;28;20141;-74
2021/03/10 00:52:43;;;;;;;39.15;20.25;;;3.30;99.90;;;;;;5090736;28;20024;-73
2021/03/10 00:55:09;;;;;;;39.30;19.85;;;3.30;99.90;;;;;;5091359;28;20024;-73
2021/03/10 00:57:35;;;;;;;36.58;19.60;;;3.30;99.90;;;;;;5091133;28;20028;-73
2021/03/10 01:00:00;;;;;;;42.67;20.00;;;3.30;99.90;;;;;;5091291;28;20024;-73
2021/03/10 01:02:26;;;;;;;38.10;19.77;;;3.30;99.90;;;;;;5091445;28;20472;-74
2021/03/10 01:04:51;;;;;;;38.88;20.45;;;3.30;99.90;;;;;;5073124;28;20024;-74
2021/03/10 01:07:17;;;;;;;41.03;19.90;;;3.30;99.90;;;;;;5091068;28;20035;-73
2021/03/10 01:09:42;;;;;;;43.22;21.65;;;3.30;99.90;;;;;;5091055;28;20020;-74
2021/03/10 01:12:08;;;;;;;42.28;21.25;;;3.10;99.90;;;;;;5072652;28;20062;-74
2021/03/10 01:14:34;;;;;;;37.35;19.45;;;3.10;99.90;;;;;;5090986;28;20063;-74
2021/03/10 01:16:59;;;;;;;43.92;20.45;;;3.20;99.90;;;;;;5091027;28;20055;-74
2021/03/10 01:19:25;;;;;;;43.60;20.67;;;3.30;99.90;;;;;;5090856;28;20024;-73
2021/03/10 01:21:50;;;;;;;41.90;20.90;;;3.30;99.90;;;;;;5090533;28;20028;-74
2021/03/10 01:24:16;;;;;;;40.17;20.40;;;3.30;99.90;;;;;;5090858;28;20081;-74
2021/03/10 01:26:41;;;;;;;39.25;21.33;;;3.30;99.90;;;;;;5072677;28;20020;-73
2021/03/10 01:29:07;;;;;;;43.13;20.65;;;3.20;99.90;;;;;;5090834;28;20058;-73
2021/03/10 01:31:32;;;;;;;36.92;20.35;;;3.30;99.90;;;;;;5072699;28;20024;-73
2021/03/10 01:33:58;;;;;;;42.47;21.70;;;3.30;99.90;;;;;;5090367;28;20024;-74
2021/03/10 01:36:23;;;;;;;40.13;20.38;;;3.30;99.90;;;;;;5072733;28;20024;-73
2021/03/10 01:38:49;;;;;;;39.92;20.38;;;3.30;99.90;;;;;;5090796;28;20020;-74
2021/03/10 01:41:14;;;;;;;41.40;21.20;;;3.30;99.90;;;;;;5090722;28;20179;-73
2021/03/10 01:43:40;;;;;;;41.42;20.35;;;3.30;99.90;;;;;;5072450;28;20074;-73
2021/03/10 01:46:06;;;;;;;40.60;20.65;;;3.40;99.90;;;;;;5090615;28;20087;-73
2021/03/10 01:48:32;;;;;;;42.58;21.50;;;3.40;99.90;;;;;;5090603;28;20024;-72
2021/03/10 01:51:01;;;;;;;42.45;19.38;;;3.40;99.90;;;;;;5090573;28;20031;-74
2021/03/10 01:53:26;;;;;;;44.00;20.23;;;3.40;99.90;;;;;;5072585;28;20039;-74
2021/03/10 01:55:54;;;;;;;39.85;20.58;;;3.40;99.90;;;;;;5090543;28;20405;-73
2021/03/10 01:58:20;;;;;;;41.00;20.20;;;3.40;99.90;;;;;;5090510;28;20024;-73
2021/03/10 02:00:46;;;;;;;41.65;21.52;;;3.40;99.90;;;;;;5072425;28;20028;-73
2021/03/10 02:03:12;;;;;;;35.88;19.27;;;3.50;99.90;;;;;;5090259;28;20035;-72
2021/03/10 02:05:37;;;;;;;43.08;20.23;;;3.50;99.90;;;;;;5093631;28;20097;-72
2021/03/10 02:08:40;;;;;;;38.13;19.90;;;3.40;99.90;;;;;;5076253;28;20470;-73
2021/03/10 02:11:21;;;;;;;38.50;20.63;;;3.40;99.90;;;;;;5094316;28;20031;-73
2021/03/10 02:14:00;;;;;;;38.45;18.80;;;3.40;99.90;;;;;;5094173;28;20016;-73
2021/03/10 02:16:45;;;;;;;38.38;20.10;;;3.40;99.90;;;;;;5076115;28;20023;-72
2021/03/10 02:19:17;;;;;;;37.65;19.50;;;3.30;99.90;;;;;;5094275;28;20394;-73
2021/03/10 02:21:56;;;;;;;37.83;20.08;;;3.30;99.90;;;;;;5075653;28;20047;-74
2021/03/10 02:24:53;;;;;;;39.60;20.02;;;3.30;99.90;;;;;;5094137;28;20488;-73
2021/03/10 02:27:41;;;;;;;37.88;19.30;;;3.40;99.90;;;;;;5052477;28;20043;-72
2021/03/10 02:30:22;;;;;;;55.13;27.17;;;3.40;99.90;;;;;;5094074;28;20047;-72
2021/03/10 02:33:03;;;;;;;47.20;22.90;;;3.30;99.90;;;;;;5093896;28;20132;-72
2021/03/10 02:35:30;;;;;;;39.33;20.70;;;3.30;99.90;;;;;;5093852;28;20474;-74
2021/03/10 02:37:58;;;;;;;58.00;27.27;;;3.30;99.90;;;;;;5075727;28;20024;-72
2021/03/10 02:40:27;;;;;;;37.97;19.83;;;3.30;99.90;;;;;;5075641;28;20028;-73
2021/03/10 02:42:53;;;;;;;39.28;20.38;;;3.30;99.90;;;;;;5075452;28;20020;-72
2021/03/10 02:45:24;;;;;;;38.78;19.52;;;3.40;99.90;;;;;;5093676;28;20031;-72
2021/03/10 02:47:51;;;;;;;44.08;21.77;;;3.40;99.90;;;;;;5093808;28;20138;-72
2021/03/10 02:50:17;;;;;;;37.40;20.08;;;3.40;99.90;;;;;;5075599;28;20024;-72
2021/03/10 02:52:44;;;;;;;39.92;19.30;;;3.50;99.90;;;;;;5075458;28;20477;-72
2021/03/10 02:55:09;;;;;;;39.60;19.98;;;3.50;99.90;;;;;;5075379;28;20474;-72
2021/03/10 02:57:36;;;;;;;39.63;20.75;;;3.60;99.90;;;;;;5093715;28;20028;-72
2021/03/10 03:00:09;;;;;;;41.13;21.05;;;3.60;99.90;;;;;;5093752;28;20055;-75
2021/03/10 03:02:37;;;;;;;37.47;19.23;;;3.60;99.90;;;;;;5093625;28;20111;-72
2021/03/10 03:05:04;;;;;;;37.28;19.55;;;3.60;99.90;;;;;;5093607;28;20020;-72
2021/03/10 03:07:30;;;;;;;38.95;19.92;;;3.60;99.90;;;;;;5093430;28;20081;-73
2021/03/10 03:09:56;;;;;;;41.75;20.13;;;3.60;99.90;;;;;;5093298;28;20086;-72
2021/03/10 03:12:22;;;;;;;39.70;20.27;;;3.50;99.90;;;;;;5092339;28;20028;-73
2021/03/10 03:14:48;;;;;;;37.88;20.50;;;3.40;99.90;;;;;;5092786;28;20043;-73
2021/03/10 03:17:15;;;;;;;34.45;19.27;;;3.40;99.90;;;;;;5093047;28;20038;-72
2021/03/10 03:19:40;;;;;;;38.42;20.10;;;3.40;99.90;;;;;;5092989;28;20032;-73
2021/03/10 03:22:07;;;;;;;39.63;21.55;;;3.40;99.90;;;;;;5092674;28;20077;-72
2021/03/10 03:24:34;;;;;;;44.10;22.05;;;3.30;99.90;;;;;;5092907;28;20543;-72
2021/03/10 03:27:01;;;;;;;44.13;21.45;;;3.30;99.90;;;;;;5093251;28;20394;-72
2021/03/10 03:29:28;;;;;;;39.80;20.25;;;3.30;99.90;;;;;;5074731;28;20028;-73
2021/03/10 03:31:55;;;;;;;41.67;20.38;;;3.30;99.90;;;;;;5074330;28;20024;-74
2021/03/10 03:34:21;;;;;;;39.95;21.58;;;3.30;99.90;;;;;;5074648;28;20107;-73
2021/03/10 03:36:47;;;;;;;40.03;20.33;;;3.40;99.90;;;;;;5092740;28;20056;-74
2021/03/10 03:39:13;;;;;;;37.58;19.70;;;3.40;99.90;;;;;;5092655;28;20028;-73
2021/03/10 03:41:39;;;;;;;44.70;21.50;;;3.50;99.90;;;;;;5074393;28;20505;-74
2021/03/10 03:44:05;;;;;;;43.45;21.20;;;3.40;99.90;;;;;;5092312;28;20029;-73
2021/03/10 03:46:31;;;;;;;36.88;19.63;;;3.40;99.90;;;;;;5074348;28;20093;-72
2021/03/10 03:49:01;;;;;;;37.95;20.30;;;3.50;99.90;;;;;;5092567;28;20024;-73
2021/03/10 03:51:28;;;;;;;44.50;21.08;;;3.50;99.90;;;;;;5074407;28;20031;-72
2021/03/10 03:54:02;;;;;;;38.05;19.10;;;3.50;99.90;;;;;;5092018;28;20493;-72
2021/03/10 03:56:28;;;;;;;36.25;19.30;;;3.50;99.90;;;;;;5092422;28;20103;-73
2021/03/10 03:58:54;;;;;;;43.63;20.17;;;3.40;99.90;;;;;;5092378;28;20493;-73
2021/03/10 04:01:20;;;;;;;38.05;20.52;;;3.40;99.90;;;;;;5092289;28;20028;-73
2021/03/10 04:03:46;;;;;;;36.17;19.65;;;3.40;99.90;;;;;;5073735;28;20024;-73
2021/03/10 04:06:13;;;;;;;38.47;19.65;;;3.40;99.90;;;;;;5092032;28;20496;-73
2021/03/10 04:08:40;;;;;;;38.83;20.67;;;3.40;99.90;;;;;;5092129;28;20028;-72
2021/03/10 04:11:07;;;;;;;40.53;20.52;;;3.50;99.90;;;;;;5092120;28;20494;-73
2021/03/10 04:13:33;;;;;;;39.88;20.40;;;3.40;99.90;;;;;;5083702;28;20032;-73
2021/03/10 04:15:58;;;;;;;38.85;20.30;;;3.40;99.90;;;;;;5084072;28;20020;-72
2021/03/10 04:18:24;;;;;;;37.70;20.38;;;3.40;99.90;;;;;;5092069;28;20056;-72
2021/03/10 04:20:49;;;;;;;37.72;19.55;;;3.50;99.90;;;;;;5092055;28;20024;-75
2021/03/10 04:23:15;;;;;;;38.55;19.77;;;3.40;99.90;;;;;;5091418;28;20034;-71
2021/03/10 04:25:41;;;;;;;34.35;19.00;;;3.50;99.90;;;;;;5073839;28;20020;-72
2021/03/10 04:28:06;;;;;;;37.75;19.98;;;3.50;99.90;;;;;;5073030;28;20119;-72
2021/03/10 04:30:32;;;;;;;46.08;23.60;;;3.60;99.90;;;;;;5073813;28;20532;-76
2021/03/10 04:32:58;;;;;;;35.92;20.60;;;3.50;99.90;;;;;;5073640;28;20031;-76
2021/03/10 04:35:24;;;;;;;38.30;19.88;;;3.50;99.90;;;;;;5091900;28;20398;-72
2021/03/10 04:37:49;;;;;;;38.72;19.98;;;3.50;99.90;;;;;;5091700;28;20500;-71
2021/03/10 04:40:16;;;;;;;38.58;20.75;;;3.40;99.90;;;;;;5091517;28;20056;-72
2021/03/10 04:42:41;;;;;;;39.55;20.08;;;3.50;99.90;;;;;;5091148;28;20020;-72
2021/03/10 04:45:09;;;;;;;37.85;20.13;;;3.50;99.90;;;;;;5091325;28;20044;-72
2021/03/10 04:47:35;;;;;;;40.58;20.80;;;3.50;99.90;;;;;;5091378;28;20019;-72
2021/03/10 04:50:02;;;;;;;37.80;20.10;;;3.60;99.90;;;;;;5091359;28;20028;-72
2021/03/10 04:52:27;;;;;;;39.92;20.23;;;3.60;99.90;;;;;;5091009;28;20390;-72
2021/03/10 04:54:53;;;;;;;39.50;20.80;;;3.60;99.90;;;;;;5073063;28;20024;-72
2021/03/10 04:57:18;;;;;;;38.58;20.13;;;3.70;99.90;;;;;;5091213;28;20035;-73
2021/03/10 04:59:45;;;;;;;38.67;19.88;;;3.60;99.90;;;;;;5091130;28;20024;-71
2021/03/10 05:02:10;;;;;;;39.13;21.13;;;3.60;99.90;;;;;;5090861;28;20024;-72
2021/03/10 05:04:36;;;;;;;39.83;20.35;;;3.50;99.90;;;;;;5091177;28;20028;-71
2021/03/10 05:07:03;;;;;;;44.45;24.23;;;3.40;99.90;;;;;;5072906;28;20024;-72
2021/03/10 05:09:28;;;;;;;42.13;21.90;;;3.50;99.90;;;;;;5091072;28;20095;-72
2021/03/10 05:11:54;;;;;;;40.10;20.58;;;3.50;99.90;;;;;;5090674;28;20059;-73
2021/03/10 05:14:19;;;;;;;40.83;21.13;;;3.60;99.90;;;;;;5090866;28;20129;-73
2021/03/10 05:16:45;;;;;;;38.08;21.10;;;3.60;99.90;;;;;;5091132;28;20028;-75
2021/03/10 05:19:11;;;;;;;41.33;21.52;;;3.50;99.90;;;;;;5072937;28;20024;-72
2021/03/10 05:21:36;;;;;;;41.78;21.63;;;3.50;99.90;;;;;;5072875;28;20028;-72
2021/03/10 05:24:02;;;;;;;46.55;22.77;;;3.50;99.90;;;;;;5090699;28;20101;-73
2021/03/10 05:26:27;;;;;;;46.90;22.88;;;3.50;99.90;;;;;;5090816;28;20023;-72
2021/03/10 05:28:53;;;;;;;38.28;20.33;;;3.60;99.90;;;;;;5090807;28;20496;-72
2021/03/10 05:31:18;;;;;;;37.80;20.92;;;3.60;99.90;;;;;;5091055;28;20024;-75
2021/03/10 05:33:44;;;;;;;44.15;21.77;;;3.60;99.90;;;;;;5090575;28;20099;-75
2021/03/10 05:36:10;;;;;;;42.58;22.05;;;3.60;99.90;;;;;;5090743;28;20085;-73
2021/03/10 05:38:35;;;;;;;39.67;21.25;;;3.60;99.90;;;;;;5092360;28;20054;-72
2021/03/10 05:41:01;;;;;;;40.78;20.67;;;3.50;99.90;;;;;;5094952;28;20081;-73
2021/03/10 05:43:28;;;;;;;41.70;20.52;;;3.50;99.90;;;;;;5094591;28;20031;-72
2021/03/10 05:45:54;;;;;;;35.75;19.95;;;3.40;99.90;;;;;;5077274;28;20122;-74
2021/03/10 05:48:19;;;;;;;40.88;20.48;;;3.40;99.90;;;;;;5076691;28;20016;-73
2021/03/10 05:50:45;;;;;;;39.20;19.83;;;3.40;99.90;;;;;;5094750;28;20024;-73
2021/03/10 05:53:12;;;;;;;44.22;22.55;;;3.40;99.90;;;;;;5094500;28;20020;-74
2021/03/10 05:55:39;;;;;;;39.85;20.67;;;3.50;99.90;;;;;;5085140;28;20027;-74
2021/03/10 05:58:12;;;;;;;39.88;21.85;;;3.50;99.90;;;;;;5072948;28;20569;-74
2021/03/10 06:00:48;;;;;;;45.72;21.90;;;3.50;99.90;;;;;;5079861;28;20039;-74
2021/03/10 06:03:15;;;;;;;41.13;20.90;;;3.50;99.90;;;;;;5065551;28;20418;-74
2021/03/10 06:05:41;;;;;;;40.30;20.83;;;3.50;99.90;;;;;;5064755;28;20016;-74
2021/03/10 06:08:09;;;;;;;39.65;20.20;;;3.60;99.90;;;;;;5078538;28;20382;-74
2021/03/10 06:10:40;;;;;;;39.15;21.35;;;3.60;99.90;;;;;;5092606;28;20016;-74
2021/03/10 06:13:24;;;;;;;44.05;22.10;;;3.60;99.90;;;;;;5094151;28;20024;-74
2021/03/10 06:15:50;;;;;;;43.10;22.05;;;3.50;99.90;;;;;;5076008;28;20020;-74
2021/03/10 06:18:25;;;;;;;49.17;23.98;;;3.50;99.90;;;;;;5094242;28;20095;-74
2021/03/10 06:21:10;;;;;;;47.13;23.60;;;3.50;99.90;;;;;;5093830;28;20036;-74
2021/03/10 06:23:53;;;;;;;52.17;26.92;;;3.50;99.90;;;;;;5075489;28;20069;-74
2021/03/10 06:26:21;;;;;;;49.88;26.70;;;3.70;99.90;;;;;;5092967;28;20082;-74
2021/03/10 06:28:47;;;;;;;60.97;28.67;;;3.80;99.90;;;;;;5075871;28;20232;-74
2021/03/10 06:31:29;;;;;;;55.60;27.98;;;3.70;99.90;;;;;;5075808;28;20055;-74
2021/03/10 06:34:21;;;;;;;49.80;25.02;;;3.80;99.90;;;;;;5075554;28;20048;-74
2021/03/10 06:36:48;;;;;;;49.28;25.45;;;3.80;99.90;;;;;;5091065;28;20036;-74
2021/03/10 06:39:29;;;;;;;50.10;26.33;;;3.90;99.90;;;;;;5094031;28;20024;-74
2021/03/10 06:41:56;;;;;;;56.45;28.80;;;4.00;99.90;;;;;;5075614;28;20082;-74
2021/03/10 06:44:27;;;;;;;56.80;28.63;;;4.00;99.90;;;;;;5094037;28;20032;-74
2021/03/10 06:46:56;;;;;;;62.35;29.63;;;4.10;99.90;;;;;;5093758;28;20020;-74
2021/03/10 06:49:24;;;;;;;65.60;31.35;;;4.20;99.90;;;;;;5065292;28;20021;-74
2021/03/10 06:51:58;;;;;;;62.72;31.88;;;4.30;99.90;;;;;;5055238;28;20063;-74
2021/03/10 06:54:28;;;;;;;53.08;27.63;;;4.40;99.90;;;;;;5055487;28;20382;-74
2021/03/10 06:57:14;;;;;;;60.10;29.98;;;4.50;99.90;;;;;;5073531;28;20032;-74
2021/03/10 06:59:41;;;;;;;59.05;29.77;;;4.40;99.90;;;;;;5073443;28;20390;-73
2021/03/10 07:02:24;;;;;;;66.20;32.15;;;4.40;99.90;;;;;;5073057;28;20032;-74
2021/03/10 07:04:57;;;;;;;66.93;31.75;;;4.60;99.90;;;;;;5073371;28;20017;-73
2021/03/10 07:07:25;;;;;;;60.80;31.33;;;4.60;99.90;;;;;;5073426;28;20090;-74
2021/03/10 07:09:51;;;;;;;60.55;30.35;;;4.60;99.90;;;;;;5073099;28;20078;-74
2021/03/10 07:12:18;;;;;;;59.13;30.75;;;4.60;99.90;;;;;;5072798;28;20028;-74
2021/03/10 07:14:46;;;;;;;61.45;30.58;;;4.60;99.90;;;;;;5072996;28;20050;-74
2021/03/10 07:17:17;;;;;;;60.10;31.30;;;4.60;99.90;;;;;;5072901;28;20433;-74
2021/03/10 07:19:43;;;;;;;54.97;28.58;;;4.70;99.90;;;;;;5073096;28;20025;-73
2021/03/10 07:22:17;;;;;;;53.60;27.77;;;4.80;99.90;;;;;;5072557;28;20017;-74
2021/03/10 07:25:01;;;;;;;50.28;27.70;;;4.90;99.90;;;;;;5057446;28;20044;-73
2021/03/10 07:27:36;;;;;;;54.60;28.02;;;4.80;99.90;;;;;;5081525;28;20383;-74
2021/03/10 07:30:03;;;;;;;51.35;26.55;;;4.80;99.90;;;;;;5054824;28;20029;-73
2021/03/10 07:32:29;;;;;;;51.08;26.17;;;4.80;99.90;;;;;;5072349;28;20029;-74
2021/03/10 07:35:09;;;;;;;60.13;29.77;;;4.80;99.90;;;;;;5072376;28;20566;-74
2021/03/10 07:37:36;;;;;;;58.17;28.58;;;5.00;99.90;;;;;;5072319;28;20079;-74
2021/03/10 07:40:15;;;;;;;53.47;27.90;;;5.00;99.90;;;;;;5072234;28;20449;-74
2021/03/10 07:42:57;;;;;;;51.40;26.77;;;5.00;99.90;;;;;;5072071;28;20118;-74
2021/03/10 07:45:26;;;;;;;62.50;27.88;;;5.10;99.90;;;;;;5054339;28;20097;-74
2021/03/10 07:47:57;;;;;;;52.00;27.60;;;5.10;99.90;;;;;;5054286;28;20123;-74
2021/03/10 07:50:36;;;;;;;54.03;28.67;;;5.20;99.90;;;;;;5072060;28;20032;-74
2021/03/10 07:53:02;;;;;;;52.97;27.58;;;5.20;99.90;;;;;;5071244;28;20043;-73
2021/03/10 07:55:28;;;;;;;53.33;28.63;;;5.30;99.90;;;;;;5092207;28;20032;-74
2021/03/10 07:57:55;;;;;;;48.67;26.10;;;5.40;99.90;;;;;;5092074;28;20073;-74
2021/03/10 08:00:35;;;;;;;49.50;26.35;;;5.40;99.90;;;;;;5074165;28;20345;-74
2021/03/10 08:03:01;;;;;;;52.72;25.70;;;5.50;99.90;;;;;;5071834;28;20478;-74
2021/03/10 08:05:28;;;;;;;55.35;29.25;;;5.50;99.90;;;;;;5073788;28;20035;-74
2021/03/10 08:08:16;;;;;;;52.55;27.15;;;5.50;99.90;;;;;;5074018;28;20020;-74
2021/03/10 08:10:42;;;;;;;52.00;27.27;;;5.40;99.90;;;;;;5072824;28;20108;-74
2021/03/10 08:13:13;;;;;;;51.53;28.30;;;5.60;99.90;;;;;;5091697;28;20036;-73
2021/03/10 08:15:39;;;;;;;54.20;29.88;;;5.70;99.90;;;;;;5073642;28;20370;-73
2021/03/10 08:18:05;;;;;;;50.65;29.15;;;5.80;99.90;;;;;;5091865;28;20024;-73
2021/03/10 08:20:35;;;;;;;53.63;28.58;;;5.90;99.90;;;;;;5091984;28;20397;-73
2021/03/10 08:23:02;;;;;;;;;;;6.10;99.90;;;;;;5091976;28;20520;-73
2021/03/10 08:25:27;;;;;;;44.17;23.63;;;6.20;99.90;;;;;;5091831;28;19915;-73
2021/03/10 08:27:53;;;;;;;47.75;25.08;;;6.30;99.90;;;;;;5073349;28;20024;-73
2021/03/10 08:30:25;;;;;;;44.30;23.77;;;6.40;99.90;;;;;;5073537;28;20070;-73
2021/03/10 08:32:51;;;;;;;43.22;24.02;;;6.40;99.90;;;;;;5091294;28;20103;-73
2021/03/10 08:35:20;;;;;;;46.35;25.42;;;6.30;99.90;;;;;;5091532;28;20038;-73
2021/03/10 08:37:57;;;;;;;43.22;23.77;;;6.50;99.90;;;;;;5091404;28;20039;-73
2021/03/10 08:40:25;;;;;;;44.15;22.77;;;6.70;99.90;;;;;;5091380;28;20047;-74
2021/03/10 08:42:52;;;;;;;36.72;20.88;;;6.70;99.50;;;;;;5091158;28;20028;-74
2021/03/10 08:45:26;;;;;;;41.70;22.50;;;6.70;99.80;;;;;;5072978;28;20070;-74
2021/03/10 08:48:03;;;;;;;44.17;22.98;;;6.90;99.90;;;;;;5091320;28;20410;-73
2021/03/10 08:50:44;;;;;;;44.78;24.25;;;7.00;99.90;;;;;;5091431;28;20095;-74
2021/03/10 08:53:13;;;;;;;47.88;26.15;;;7.40;99.90;;;;;;5091147;28;20031;-73
2021/03/10 08:55:39;;;;;;;46.83;24.83;;;7.50;99.90;;;;;;5073181;28;20028;-74
2021/03/10 08:58:13;;;;;;;47.58;25.77;;;7.60;99.90;;;;;;5091242;28;20028;-73
2021/03/10 09:00:39;;;;;;;43.05;23.63;;;7.70;99.20;;;;;;5091181;28;20048;-73
2021/03/10 09:03:16;;;;;;;46.15;24.90;;;7.80;99.00;;;;;;5090796;28;20032;-74
2021/03/10 09:05:42;;;;;;;45.30;25.65;;;7.70;99.70;;;;;;5091159;28;20024;-72
2021/03/10 09:08:13;;;;;;;48.35;25.60;;;7.70;99.60;;;;;;5091190;28;20509;-71
2021/03/10 09:10:51;;;;;;;41.72;23.58;;;7.60;99.90;;;;;;5091142;28;20051;-72
2021/03/10 09:13:24;;;;;;;42.58;24.35;;;7.60;98.90;;;;;;5090297;28;20525;-71
2021/03/10 09:15:50;;;;;;;45.60;24.23;;;7.50;99.00;;;;;;5072753;28;20035;-72
2021/03/10 09:18:15;;;;;;;45.97;23.73;;;7.50;99.70;;;;;;5090926;28;20378;-72
2021/03/10 09:20:43;;;;;;;43.17;23.05;;;7.70;99.50;;;;;;5090887;28;20020;-72
2021/03/10 09:23:10;;;;;;;44.35;24.42;;;7.80;99.40;;;;;;5072513;28;20145;-72
2021/03/10 09:25:38;;;;;;;43.42;25.10;;;7.80;99.60;;;;;;5091267;28;20044;-71
2021/03/10 09:28:14;;;;;;;40.83;23.48;;;7.90;99.30;;;;;;5090941;28;20024;-71
2021/03/10 09:30:44;;;;;;;42.50;24.17;;;7.90;98.00;;;;;;5090855;28;20547;-72
2021/03/10 09:33:24;;;;;;;40.67;24.60;;;8.10;98.70;;;;;;5090506;28;20383;-72
2021/03/10 09:35:58;;;;;;;41.75;23.17;;;7.90;99.50;;;;;;5072629;28;20089;-71
2021/03/10 09:38:25;;;;;;;43.80;24.52;;;7.90;98.50;;;;;;5090685;28;20024;-71
2021/03/10 09:40:55;;;;;;;42.25;24.08;;;7.90;98.50;;;;;;5090605;28;20031;-72
2021/03/10 09:43:22;;;;;;;41.60;23.30;;;8.00;98.10;;;;;;5072230;28;20070;-72
2021/03/10 09:45:49;;;;;;;40.25;24.55;;;8.00;98.60;;;;;;5090476;28;20036;-72
2021/03/10 09:48:28;;;;;;;47.13;24.58;;;8.10;97.90;;;;;;5090554;28;20020;-72
2021/03/10 09:51:03;;;;;;;41.03;22.98;;;8.30;97.20;;;;;;5090596;28;20025;-72
2021/03/10 09:53:29;;;;;;;46.97;26.05;;;8.40;97.30;;;;;;5090252;28;20020;-72
2021/03/10 09:56:08;;;;;;;39.25;21.88;;;8.50;98.00;;;;;;5090368;28;20020;-72
2021/03/10 09:59:06;;;;;;;35.43;19.83;;;8.60;96.20;;;;;;5090038;28;20069;-73
2021/03/10 10:01:31;;;;;;;39.35;20.83;;;8.90;94.60;;;;;;5090333;28;20020;-74
2021/03/10 10:03:58;;;;;;;40.20;21.67;;;9.10;94.00;;;;;;5089959;28;20020;-74
2021/03/10 10:06:24;;;;;;;42.83;24.48;;;9.10;94.70;;;;;;5072117;28;20016;-74
2021/03/10 10:08:51;;;;;;;34.92;19.58;;;9.30;95.40;;;;;;5072586;28;20025;-73
2021/03/10 10:11:18;;;;;;;34.38;19.65;;;9.30;92.60;;;;;;5090457;28;20020;-74
2021/03/10 10:13:45;;;;;;;30.77;17.15;;;9.20;92.60;;;;;;5072001;28;20028;-74
2021/03/10 10:16:12;;;;;;;35.42;19.35;;;9.10;90.80;;;;;;5090154;28;20032;-74
2021/03/10 10:18:38;;;;;;;32.28;17.63;;;9.00;90.80;;;;;;5072201;28;20024;-73
2021/03/10 10:21:04;;;;;;;33.05;18.75;;;9.00;92.80;;;;;;5090430;28;20500;-73
2021/03/10 10:23:30;;;;;;;30.88;17.75;;;9.10;93.90;;;;;;5071853;28;20438;-73
2021/03/10 10:25:55;;;;;;;33.50;18.23;;;9.30;90.50;;;;;;5092174;28;20060;-73
2021/03/10 10:28:22;;;;;;;33.92;18.80;;;9.30;91.00;;;;;;5094285;28;20085;-74
2021/03/10 10:30:48;;;;;;;30.15;16.60;;;9.50;91.90;;;;;;5094006;28;20046;-73
2021/03/10 10:33:13;;;;;;;29.83;17.58;;;9.50;85.00;;;;;;5093756;28;20024;-74
2021/03/10 10:35:39;;;;;;;28.90;16.63;;;9.70;88.20;;;;;;5094189;28;20068;-75
2021/03/10 10:38:07;;;;;;;30.10;17.50;;;9.80;85.30;;;;;;5076014;28;20063;-72
2021/03/10 10:40:33;;;;;;;30.95;17.58;;;9.80;85.90;;;;;;5093823;28;20050;-72
2021/03/10 10:42:58;;;;;;;28.40;16.40;;;9.70;86.00;;;;;;5075145;28;20032;-70
2021/03/10 10:45:24;;;;;;;30.23;17.15;;;9.70;86.90;;;;;;5093266;28;20036;-70
2021/03/10 10:47:49;;;;;;;28.75;16.15;;;9.70;84.20;;;;;;5086324;28;20082;-70
2021/03/10 10:50:15;;;;;;;30.10;17.48;;;9.60;84.40;;;;;;5083054;28;20074;-70
2021/03/10 10:52:41;;;;;;;30.58;17.95;;;9.60;86.90;;;;;;5081872;28;20024;-70
2021/03/10 10:55:07;;;;;;;31.48;16.83;;;9.40;88.10;;;;;;5082479;28;20033;-71
2021/03/10 10:57:33;;;;;;;29.75;16.70;;;9.50;89.20;;;;;;5093282;28;20028;-71
2021/03/10 10:59:58;;;;;;;30.27;16.65;;;9.70;85.70;;;;;;5093477;28;20440;-71
2021/03/10 11:02:24;;;;;;;30.25;16.25;;;9.70;84.70;;;;;;5093245;28;20028;-71
2021/03/10 11:04:49;;;;;;;32.55;17.63;;;9.60;82.80;;;;;;5093483;28;20020;-70
2021/03/10 11:07:15;;;;;;;32.75;17.02;;;9.40;85.60;;;;;;5093469;28;20028;-70
2021/03/10 11:09:41;;;;;;;30.73;17.05;;;9.20;83.50;;;;;;5093426;28;20110;-70
2021/03/10 11:12:09;;;;;;;30.73;16.98;;;9.10;86.60;;;;;;5093173;28;20080;-70
2021/03/10 11:14:35;;;;;;;28.52;16.38;;;9.20;88.70;;;;;;5093181;28;20020;-70
2021/03/10 11:17:01;;;;;;;28.10;16.02;;;9.20;83.00;;;;;;5093395;28;20035;-70
2021/03/10 11:19:27;;;;;;;31.50;18.10;;;9.20;80.20;;;;;;5075246;28;20032;-70
2021/03/10 11:21:52;;;;;;;30.42;16.13;;;9.00;81.40;;;;;;5093129;28;20063;-70
2021/03/10 11:24:18;;;;;;;28.73;15.77;;;9.00;87.60;;;;;;5093418;28;20027;-70
2021/03/10 11:26:44;;;;;;;28.85;17.52;;;9.00;84.80;;;;;;5074795;28;20020;-70
2021/03/10 11:29:10;;;;;;;31.70;17.45;;;9.10;83.20;;;;;;5086191;28;20044;-71
2021/03/10 11:31:36;;;;;;;30.92;16.13;;;9.20;82.20;;;;;;5074122;28;20027;-70
2021/03/10 11:34:01;;;;;;;27.45;15.82;;;9.20;81.20;;;;;;5072475;28;20115;-70
2021/03/10 11:36:27;;;;;;;28.85;15.68;;;9.40;80.90;;;;;;5071893;28;20071;-71
2021/03/10 11:38:53;;;;;;;25.80;15.70;;;9.40;82.40;;;;;;5085714;28;20103;-71
2021/03/10 11:41:19;;;;;;;28.52;15.90;;;9.60;79.50;;;;;;5092704;28;20028;-70
2021/03/10 11:43:44;;;;;;;29.17;15.90;;;9.60;82.20;;;;;;5092226;28;20024;-70
2021/03/10 11:46:10;;;;;;;30.10;15.88;;;9.80;80.40;;;;;;5075044;28;20035;-70
2021/03/10 11:48:35;;;;;;;31.33;17.25;;;9.80;82.40;;;;;;5074494;28;20030;-69
2021/03/10 11:51:01;;;;;;;26.20;15.35;;;10.00;79.70;;;;;;5092510;28;20031;-69
2021/03/10 11:53:26;;;;;;;28.35;15.93;;;10.00;76.60;;;;;;5092300;28;20040;-71
2021/03/10 11:55:52;;;;;;;34.35;19.30;;;10.30;75.60;;;;;;5074439;28;20024;-70
2021/03/10 11:58:19;;;;;;;34.05;18.83;;;10.50;82.10;;;;;;5088072;28;20585;-69
2021/03/10 12:00:44;;;;;;;32.25;18.70;;;11.00;84.00;;;;;;5083176;28;20024;-70
2021/03/10 12:03:10;;;;;;;32.95;18.73;;;11.60;83.90;;;;;;5073670;28;20081;-70
2021/03/10 12:05:36;;;;;;;30.90;17.00;;;12.10;78.80;;;;;;5092522;28;20408;-69
2021/03/10 12:08:01;;;;;;;30.00;17.77;;;12.30;81.00;;;;;;5092045;28;20024;-69
2021/03/10 12:10:27;;;;;;;29.77;18.20;;;12.40;77.50;;;;;;5092170;28;20032;-70
2021/03/10 12:12:53;;;;;;;29.15;17.00;;;12.00;75.70;;;;;;5091693;28;20028;-69
2021/03/10 12:15:19;;;;;;;31.65;17.60;;;11.80;78.70;;;;;;5091753;28;20032;-71
2021/03/10 12:17:45;;;;;;;29.08;17.48;;;11.70;78.80;;;;;;5092024;28;20470;-71
2021/03/10 12:20:11;;;;;;;26.13;15.52;;;11.50;78.00;;;;;;5091922;28;20039;-69
2021/03/10 12:22:37;;;;;;;26.52;16.35;;;11.30;72.60;;;;;;5091550;28;20032;-69
2021/03/10 12:25:04;;;;;;;31.48;19.48;;;11.00;75.40;;;;;;5091735;28;20386;-69
2021/03/10 12:27:30;;;;;;;28.45;16.63;;;11.10;76.80;;;;;;5073437;28;20107;-69
2021/03/10 12:29:57;;;;;;;32.63;17.55;;;11.10;80.50;;;;;;5091744;28;20106;-71
2021/03/10 12:32:24;;;;;;;31.25;16.70;;;10.80;76.90;;;;;;5073192;28;20051;-69
2021/03/10 12:34:50;;;;;;;28.65;16.65;;;10.90;81.30;;;;;;5073334;28;20028;-72
2021/03/10 12:37:16;;;;;;;31.52;17.70;;;11.00;81.60;;;;;;5091599;28;20028;-69
2021/03/10 12:39:42;;;;;;;30.88;18.05;;;10.90;81.70;;;;;;5091376;28;20032;-68
2021/03/10 12:42:09;;;;;;;28.55;16.48;;;11.20;83.60;;;;;;5090929;28;20024;-70